createdAt,value
2022-09-24T00:01:33.436Z,8.45
2022-09-24T00:04:03.575Z,11.90
2022-09-24T00:06:37.060Z,7.80
2022-09-24T00:09:06.540Z,10.63
2022-09-24T00:11:34.395Z,10.30
2022-09-24T00:14:02.516Z,12.18
2022-09-24T00:16:34.025Z,15.48
2022-09-24T00:19:03.138Z,14.88
2022-09-24T00:21:32.453Z,13.55
2022-09-24T00:24:02.359Z,12.68
2022-09-24T00:26:48.640Z,12.70
2022-09-24T00:29:19.963Z,11.50
2022-09-24T00:31:47.871Z,10.20
2022-09-24T00:34:16.069Z,13.25
2022-09-24T00:36:46.849Z,11.55
2022-09-24T00:39:15.775Z,12.93
2022-09-24T00:41:49.039Z,13.48
2022-09-24T00:44:54.074Z,11.55
2022-09-24T00:47:30.659Z,8.98
2022-09-24T00:50:06.350Z,10.52
2022-09-24T00:52:35.214Z,10.10
2022-09-24T00:55:03.114Z,10.75
2022-09-24T00:57:32.860Z,9.48
2022-09-24T01:00:00.843Z,10.45
2022-09-24T01:02:28.716Z,10.30
2022-09-24T01:04:56.949Z,12.55
2022-09-24T01:07:25.495Z,11.23
2022-09-24T01:09:53.814Z,11.32
2022-09-24T01:12:33.707Z,10.55
2022-09-24T01:15:16.536Z,10.93
2022-09-24T01:17:53.396Z,13.85
2022-09-24T01:21:06.098Z,12.32
2022-09-24T01:23:57.411Z,14.65
2022-09-24T01:26:49.188Z,12.98
2022-09-24T01:29:32.206Z,16.48
2022-09-24T01:32:05.966Z,17.33
2022-09-24T01:34:41.281Z,15.45
2022-09-24T01:37:09.799Z,15.73
2022-09-24T01:39:39.308Z,12.45
2022-09-24T01:42:09.178Z,18.37
2022-09-24T01:44:44.448Z,20.48
2022-09-24T01:47:19.563Z,19.58
2022-09-24T01:49:47.746Z,12.93
2022-09-24T01:52:21.217Z,16.77
2022-09-24T01:54:52.369Z,12.95
2022-09-24T01:57:25.009Z,15.57
2022-09-24T02:00:00.767Z,17.48
2022-09-24T02:02:37.311Z,13.82
2022-09-24T02:05:09.770Z,12.73
2022-09-24T02:07:43.591Z,15.93
2022-09-24T02:10:16.591Z,14.13
2022-09-24T02:12:46.992Z,15.32
2022-09-24T02:17:49.538Z,14.68
2022-09-24T02:20:21.763Z,17.92
2022-09-24T02:22:52.707Z,15.90
2022-09-24T02:25:24.651Z,14.38
2022-09-24T02:27:52.664Z,14.88
2022-09-24T02:30:21.936Z,18.60
2022-09-24T02:32:51.761Z,16.15
2022-09-24T02:35:18.672Z,15.98
2022-09-24T02:37:48.052Z,13.52
2022-09-24T02:40:16.633Z,17.63
2022-09-24T02:42:44.714Z,16.73
2022-09-24T02:45:14.221Z,16.88
2022-09-24T02:47:43.395Z,16.50
2022-09-24T02:50:11.222Z,14.23
2022-09-24T02:52:39.036Z,14.52
2022-09-24T02:55:07.240Z,13.43
2022-09-24T02:57:35.386Z,12.52
2022-09-24T03:00:03.701Z,16.35
2022-09-24T03:02:31.677Z,15.73
2022-09-24T03:05:00.916Z,14.23
2022-09-24T03:07:28.804Z,12.75
2022-09-24T03:09:56.607Z,16.40
2022-09-24T03:12:24.961Z,13.07
2022-09-24T03:14:52.831Z,16.83
2022-09-24T03:17:20.627Z,18.92
2022-09-24T03:19:48.404Z,13.60
2022-09-24T03:22:17.591Z,19.35
2022-09-24T03:24:45.955Z,18.00
2022-09-24T03:27:13.762Z,16.90
2022-09-24T03:29:58.851Z,14.45
2022-09-24T03:32:27.004Z,17.35
2022-09-24T03:34:54.795Z,20.15
2022-09-24T03:37:23.996Z,21.20
2022-09-24T03:39:51.817Z,16.80
2022-09-24T03:42:19.646Z,19.58
2022-09-24T03:44:47.427Z,16.23
2022-09-24T03:47:18.054Z,18.10
2022-09-24T03:49:45.847Z,15.27
2022-09-24T03:52:14.052Z,16.77
2022-09-24T03:54:43.268Z,15.80
2022-09-24T03:57:14.827Z,14.80
2022-09-24T03:59:43.099Z,17.40
2022-09-24T04:02:11.426Z,15.98
2022-09-24T04:04:39.646Z,13.95
2022-09-24T04:07:07.454Z,16.40
2022-09-24T04:09:35.276Z,17.08
2022-09-24T04:12:06.390Z,16.42
2022-09-24T04:14:34.219Z,17.92
2022-09-24T04:17:02.005Z,12.13
2022-09-24T04:19:32.007Z,14.32
2022-09-24T04:21:59.887Z,14.20
2022-09-24T04:24:27.687Z,22.20
2022-09-24T04:26:55.493Z,17.33
2022-09-24T04:29:24.665Z,17.83
2022-09-24T04:31:55.376Z,17.42
2022-09-24T04:34:26.164Z,19.98
2022-09-24T04:36:53.946Z,20.92
2022-09-24T04:39:26.653Z,16.08
2022-09-24T04:41:54.516Z,16.50
2022-09-24T04:44:22.631Z,16.30
2022-09-24T04:46:52.214Z,14.70
2022-09-24T04:49:20.068Z,13.27
2022-09-24T04:51:47.868Z,18.45
2022-09-24T04:54:16.675Z,16.42
2022-09-24T04:56:44.571Z,18.70
2022-09-24T04:59:12.358Z,18.58
2022-09-24T05:01:40.253Z,17.05
2022-09-24T05:04:09.786Z,16.10
2022-09-24T05:06:37.636Z,15.73
2022-09-24T05:09:09.055Z,16.98
2022-09-24T05:11:40.147Z,20.40
2022-09-24T05:14:08.486Z,12.07
2022-09-24T05:16:36.298Z,16.67
2022-09-24T05:19:04.968Z,18.17
2022-09-24T05:21:34.246Z,15.50
2022-09-24T05:24:02.316Z,13.93
2022-09-24T05:26:47.646Z,15.27
2022-09-24T05:29:15.448Z,17.52
2022-09-24T05:31:43.329Z,13.57
2022-09-24T05:34:11.244Z,13.82
2022-09-24T05:36:40.424Z,12.30
2022-09-24T05:39:08.475Z,12.85
2022-09-24T05:41:36.291Z,14.07
2022-09-24T05:44:07.812Z,14.95
2022-09-24T05:46:35.670Z,18.00
2022-09-24T05:49:03.523Z,19.45
2022-09-24T05:51:31.330Z,16.25
2022-09-24T05:54:00.511Z,18.05
2022-09-24T05:56:28.337Z,26.90
2022-09-24T05:58:56.167Z,15.65
2022-09-24T06:01:24.752Z,16.50
2022-09-24T06:03:52.715Z,17.48
2022-09-24T06:06:20.520Z,13.70
2022-09-24T06:08:48.305Z,20.08
2022-09-24T06:11:17.783Z,16.60
2022-09-24T06:13:45.859Z,17.17
2022-09-24T06:16:13.713Z,13.57
2022-09-24T06:18:44.275Z,14.85
2022-09-24T06:23:41.064Z,19.02
2022-09-24T06:26:12.023Z,16.10
2022-09-24T06:28:41.868Z,14.57
2022-09-24T06:31:11.935Z,18.65
2022-09-24T06:33:40.529Z,17.70
2022-09-24T06:36:08.865Z,16.00
2022-09-24T06:38:36.935Z,24.60
2022-09-24T06:41:06.569Z,19.40
2022-09-24T06:43:35.458Z,18.65
2022-09-24T06:46:05.044Z,20.55
2022-09-24T06:48:33.481Z,16.15
2022-09-24T06:51:01.319Z,17.92
2022-09-24T06:53:29.121Z,23.70
2022-09-24T06:55:59.664Z,16.88
2022-09-24T06:58:27.949Z,13.60
2022-09-24T07:00:58.840Z,18.50
2022-09-24T07:03:29.899Z,20.08
2022-09-24T07:06:01.992Z,18.80
2022-09-24T07:08:29.947Z,20.23
2022-09-24T07:10:57.800Z,24.63
2022-09-24T07:13:25.806Z,16.83
2022-09-24T07:15:54.212Z,19.38
2022-09-24T07:18:22.167Z,15.68
2022-09-24T07:20:55.183Z,15.10
2022-09-24T07:23:24.160Z,16.83
2022-09-24T07:25:57.822Z,21.48
2022-09-24T07:28:25.789Z,20.42
2022-09-24T07:31:00.924Z,18.00
2022-09-24T07:33:28.884Z,21.67
2022-09-24T07:35:58.047Z,18.48
2022-09-24T07:38:26.000Z,18.20
2022-09-24T07:40:59.248Z,14.23
2022-09-24T07:43:28.606Z,15.13
2022-09-24T07:45:58.178Z,18.92
2022-09-24T07:48:26.351Z,15.45
2022-09-24T07:50:58.642Z,13.73
2022-09-24T07:53:26.461Z,12.30
2022-09-24T07:55:56.357Z,13.02
2022-09-24T07:58:24.148Z,19.83
2022-09-24T08:00:52.059Z,15.98
2022-09-24T08:03:19.885Z,17.20
2022-09-24T08:05:47.824Z,14.70
2022-09-24T08:08:17.030Z,14.88
2022-09-24T08:10:45.087Z,17.25
2022-09-24T08:13:13.022Z,14.82
2022-09-24T08:15:41.296Z,15.07
2022-09-24T08:18:09.240Z,10.35
2022-09-24T08:20:38.798Z,15.07
2022-09-24T08:23:09.928Z,14.83
2022-09-24T08:25:39.140Z,13.80
2022-09-24T08:28:08.059Z,17.13
2022-09-24T08:30:36.804Z,14.15
2022-09-24T08:33:06.612Z,15.45
2022-09-24T08:35:35.299Z,11.20
2022-09-24T08:38:03.607Z,13.07
2022-09-24T08:40:35.394Z,11.57
2022-09-24T08:43:21.315Z,10.95
2022-09-24T08:46:11.646Z,14.68
2022-09-24T08:48:46.075Z,10.88
2022-09-24T08:51:18.960Z,11.27
2022-09-24T08:53:52.875Z,10.05
2022-09-24T08:56:26.623Z,10.82
2022-09-24T08:58:59.954Z,11.23
2022-09-24T09:01:38.150Z,12.57
2022-09-24T09:04:22.661Z,7.97
2022-09-24T09:07:02.663Z,8.93
2022-09-24T09:09:42.704Z,12.13
2022-09-24T09:12:18.038Z,6.78
2022-09-24T09:14:54.215Z,7.60
2022-09-24T09:17:33.188Z,7.95
2022-09-24T09:20:04.840Z,8.25
2022-09-24T09:22:39.334Z,7.88
2022-09-24T09:25:18.807Z,6.15
2022-09-24T09:27:47.926Z,6.93
2022-09-24T09:30:19.900Z,14.02
2022-09-24T09:33:17.825Z,6.75
2022-09-24T09:35:52.463Z,7.57
2022-09-24T09:38:26.343Z,4.75
2022-09-24T09:41:00.351Z,3.47
2022-09-24T09:43:29.049Z,7.40
2022-09-24T09:46:08.711Z,4.63
2022-09-24T09:48:45.524Z,7.45
2022-09-24T09:51:22.540Z,5.68
2022-09-24T09:53:58.177Z,5.65
2022-09-24T09:56:29.163Z,10.40
2022-09-24T09:59:06.984Z,6.22
2022-09-24T10:01:40.657Z,4.95
2022-09-24T10:04:27.377Z,6.72
2022-09-24T10:07:05.356Z,4.53
2022-09-24T10:09:33.799Z,5.68
2022-09-24T10:12:09.792Z,7.50
2022-09-24T10:14:37.594Z,7.50
2022-09-24T10:17:07.151Z,7.50
2022-09-24T10:19:39.086Z,5.77
2022-09-24T10:22:16.873Z,5.75
2022-09-24T10:24:45.344Z,7.85
2022-09-24T10:27:14.088Z,5.65
2022-09-24T10:29:59.991Z,7.10
2022-09-24T10:32:30.598Z,4.63
2022-09-24T10:35:00.474Z,5.40
2022-09-24T10:37:29.296Z,4.25
2022-09-24T10:40:01.638Z,7.35
2022-09-24T10:42:31.108Z,6.68
2022-09-24T10:45:02.196Z,5.90
2022-09-24T10:47:41.907Z,5.97
2022-09-24T10:50:27.522Z,7.83
2022-09-24T10:52:58.824Z,6.53
2022-09-24T10:55:39.198Z,5.70
2022-09-24T10:58:27.890Z,4.60
2022-09-24T11:01:08.152Z,6.85
2022-09-24T11:04:12.905Z,7.25
2022-09-24T11:06:52.299Z,7.90
2022-09-24T11:09:28.958Z,10.68
2022-09-24T11:12:05.843Z,5.80
2022-09-24T11:14:50.359Z,8.68
2022-09-24T11:17:32.321Z,10.05
2022-09-24T11:20:29.027Z,7.30
2022-09-24T11:23:08.663Z,6.95
2022-09-24T11:25:48.798Z,8.53
2022-09-24T11:28:36.286Z,6.00
2022-09-24T11:31:13.438Z,3.53
2022-09-24T11:34:04.006Z,4.13
2022-09-24T11:39:29.779Z,5.70
2022-09-24T11:42:04.776Z,4.20
2022-09-24T11:45:16.284Z,5.95
2022-09-24T11:48:12.384Z,5.45
2022-09-24T11:50:52.122Z,5.15
2022-09-24T11:53:32.849Z,4.03
2022-09-24T11:56:12.294Z,3.03
2022-09-24T11:58:46.520Z,4.32
2022-09-24T12:01:17.224Z,5.15
2022-09-24T12:03:50.263Z,5.45
2022-09-24T12:06:21.629Z,3.70
2022-09-24T12:08:57.962Z,2.60
2022-09-24T12:11:35.396Z,5.07
2022-09-24T12:14:10.962Z,5.68
2022-09-24T12:16:42.276Z,6.78
2022-09-24T12:19:18.512Z,4.65
2022-09-24T12:21:48.881Z,3.88
2022-09-24T12:24:22.712Z,3.90
2022-09-24T12:26:52.283Z,3.58
2022-09-24T12:29:54.470Z,3.70
2022-09-24T12:32:47.023Z,5.35
2022-09-24T12:35:23.290Z,5.60
2022-09-24T12:37:56.232Z,3.55
2022-09-24T12:40:50.933Z,4.13
2022-09-24T12:43:26.217Z,4.05
2022-09-24T12:46:00.475Z,4.38
2022-09-24T12:48:30.402Z,3.75
2022-09-24T12:51:00.945Z,4.65
2022-09-24T12:53:35.472Z,4.88
2022-09-24T12:56:07.140Z,2.28
2022-09-24T12:58:40.316Z,6.78
2022-09-24T13:01:14.202Z,3.75
2022-09-24T13:03:47.136Z,6.25
2022-09-24T13:06:31.887Z,4.38
2022-09-24T13:09:00.126Z,6.45
2022-09-24T13:11:33.556Z,4.10
2022-09-24T13:14:19.237Z,5.72
2022-09-24T13:16:50.618Z,4.95
2022-09-24T13:19:27.543Z,2.97
2022-09-24T13:21:57.883Z,4.50
2022-09-24T13:24:29.184Z,2.60
2022-09-24T13:27:11.583Z,6.72
2022-09-24T13:29:41.448Z,5.07
2022-09-24T13:32:19.706Z,6.88
2022-09-24T13:34:50.494Z,3.28
2022-09-24T13:37:23.275Z,4.43
2022-09-24T13:39:57.016Z,10.45
2022-09-24T13:42:34.845Z,6.38
2022-09-24T13:45:09.522Z,2.45
2022-09-24T13:47:44.337Z,6.88
2022-09-24T13:50:17.759Z,3.70
2022-09-24T13:52:51.360Z,5.35
2022-09-24T13:55:24.174Z,5.72
2022-09-24T13:57:53.418Z,9.88
2022-09-24T14:00:24.464Z,3.25
2022-09-24T14:03:04.151Z,4.47
2022-09-24T14:05:35.939Z,7.20
2022-09-24T14:08:06.450Z,7.25
2022-09-24T14:13:17.588Z,3.15
2022-09-24T14:15:56.278Z,5.53
2022-09-24T14:18:25.501Z,4.93
2022-09-24T14:20:58.724Z,5.60
2022-09-24T14:23:31.418Z,6.90
2022-09-24T14:26:00.585Z,4.65
2022-09-24T14:28:32.935Z,2.55
2022-09-24T14:31:02.127Z,3.60
2022-09-24T14:33:34.067Z,7.10
2022-09-24T14:36:03.598Z,2.88
2022-09-24T14:38:35.884Z,4.25
2022-09-24T14:41:08.898Z,4.53
2022-09-24T14:43:46.921Z,2.15
2022-09-24T14:46:20.021Z,4.75
2022-09-24T14:48:47.988Z,4.28
2022-09-24T14:51:26.950Z,8.23
2022-09-24T14:54:02.741Z,2.10
2022-09-24T14:56:33.124Z,3.78
2022-09-24T14:59:02.532Z,4.65
2022-09-24T15:01:34.763Z,4.85
2022-09-24T15:04:05.405Z,2.90
2022-09-24T15:06:35.396Z,5.85
2022-09-24T15:09:05.472Z,3.17
2022-09-24T15:11:35.865Z,3.50
2022-09-24T15:14:25.089Z,4.75
2022-09-24T15:16:53.618Z,2.88
2022-09-24T15:19:23.040Z,6.53
2022-09-24T15:21:52.698Z,4.70
2022-09-24T15:24:22.168Z,6.17
2022-09-24T15:27:00.960Z,4.18
2022-09-24T15:29:30.283Z,3.20
2022-09-24T15:31:59.125Z,3.63
2022-09-24T15:34:28.405Z,3.75
2022-09-24T15:36:59.369Z,5.80
2022-09-24T15:39:27.954Z,2.90
2022-09-24T15:41:55.993Z,5.07
2022-09-24T15:44:29.765Z,6.50
2022-09-24T15:47:00.582Z,4.85
2022-09-24T15:49:28.412Z,5.38
2022-09-24T15:52:15.241Z,4.55
2022-09-24T15:54:43.356Z,3.75
2022-09-24T15:57:13.333Z,4.00
2022-09-24T15:59:41.145Z,8.10
2022-09-24T16:02:18.515Z,6.65
2022-09-24T16:04:46.446Z,4.50
2022-09-24T16:07:14.294Z,6.40
2022-09-24T16:09:42.255Z,4.00
2022-09-24T16:12:12.250Z,5.40
2022-09-24T16:14:40.046Z,6.07
2022-09-24T16:17:07.944Z,8.63
2022-09-24T16:19:37.061Z,8.35
2022-09-24T16:22:04.969Z,4.38
2022-09-24T16:24:33.559Z,5.53
2022-09-24T16:27:01.913Z,2.90
2022-09-24T16:29:29.724Z,6.93
2022-09-24T16:31:57.630Z,3.28
2022-09-24T16:34:25.508Z,5.03
2022-09-24T16:36:54.746Z,4.22
2022-09-24T16:39:22.824Z,6.07
2022-09-24T16:41:50.996Z,7.63
2022-09-24T16:44:19.374Z,6.75
2022-09-24T16:46:49.095Z,5.53
2022-09-24T16:49:17.366Z,7.28
2022-09-24T16:51:45.448Z,5.22
2022-09-24T16:54:15.195Z,4.47
2022-09-24T16:56:43.079Z,6.32
2022-09-24T16:59:11.687Z,8.18
2022-09-24T17:01:42.574Z,7.35
2022-09-24T17:04:10.560Z,4.50
2022-09-24T17:06:38.456Z,7.05
2022-09-24T17:09:23.728Z,7.05
2022-09-24T17:11:53.794Z,6.22
2022-09-24T17:14:21.808Z,7.55
2022-09-24T17:16:49.762Z,4.90
2022-09-24T17:19:17.552Z,3.88
2022-09-24T17:21:50.075Z,6.03
2022-09-24T17:24:21.449Z,6.20
2022-09-24T17:26:50.084Z,9.13
2022-09-24T17:29:20.785Z,5.72
2022-09-24T17:31:48.764Z,7.38
2022-09-24T17:34:16.635Z,5.53
2022-09-24T17:36:44.459Z,5.82
2022-09-24T17:39:13.945Z,5.72
2022-09-24T17:41:42.211Z,7.30
2022-09-24T17:44:12.464Z,6.75
2022-09-24T17:46:41.823Z,7.43
2022-09-24T17:49:11.187Z,5.43
2022-09-24T17:51:39.321Z,8.43
2022-09-24T17:54:09.535Z,5.95
2022-09-24T17:56:39.323Z,7.80
2022-09-24T17:59:08.114Z,6.07
2022-09-24T18:01:37.754Z,5.53
2022-09-24T18:04:09.119Z,5.90
2022-09-24T18:06:39.494Z,4.03
2022-09-24T18:09:08.288Z,5.45
2022-09-24T18:11:40.610Z,7.18
2022-09-24T18:14:13.635Z,5.32
2022-09-24T18:16:42.270Z,4.50
2022-09-24T18:19:12.997Z,6.40
2022-09-24T18:21:40.816Z,7.68
2022-09-24T18:24:10.223Z,5.95
2022-09-24T18:26:40.298Z,8.18
2022-09-24T18:29:12.839Z,5.15
2022-09-24T18:31:41.343Z,10.38
2022-09-24T18:34:13.276Z,8.18
2022-09-24T18:36:42.682Z,4.97
2022-09-24T18:39:13.455Z,8.00
2022-09-24T18:41:42.630Z,6.07
2022-09-24T18:44:11.137Z,6.55
2022-09-24T18:46:39.390Z,9.80
2022-09-24T18:49:08.048Z,7.20
2022-09-24T18:51:38.572Z,8.45
2022-09-24T18:56:36.252Z,7.15
2022-09-24T18:59:09.707Z,6.38
2022-09-24T19:01:38.635Z,8.13
2022-09-24T19:04:08.098Z,7.28
2022-09-24T19:06:39.513Z,7.22
2022-09-24T19:09:08.373Z,6.75
2022-09-24T19:11:37.049Z,9.68
2022-09-24T19:14:04.935Z,7.70
2022-09-24T19:16:33.652Z,6.28
2022-09-24T19:19:02.826Z,8.65
2022-09-24T19:21:31.171Z,7.25
2022-09-24T19:24:01.051Z,11.70
2022-09-24T19:26:31.782Z,7.80
2022-09-24T19:28:59.883Z,7.65
2022-09-24T19:31:30.249Z,7.85
2022-09-24T19:36:26.652Z,8.52
2022-09-24T19:38:54.782Z,8.60
2022-09-24T19:41:26.677Z,6.50
2022-09-24T19:43:57.119Z,5.00
2022-09-24T19:46:26.791Z,6.18
2022-09-24T19:48:55.871Z,8.10
2022-09-24T19:51:25.779Z,7.10
2022-09-24T19:53:55.203Z,11.20
2022-09-24T19:56:25.530Z,8.80
2022-09-24T19:58:54.692Z,8.60
2022-09-24T20:01:24.136Z,7.75
2022-09-24T20:03:52.392Z,10.45
2022-09-24T20:06:22.661Z,5.45
2022-09-24T20:08:50.759Z,7.13
2022-09-24T20:11:20.911Z,8.50
2022-09-24T20:13:51.037Z,6.85
2022-09-24T20:16:21.514Z,7.85
2022-09-24T20:21:18.890Z,8.38
2022-09-24T20:23:48.004Z,6.85
2022-09-24T20:26:34.930Z,9.35
2022-09-24T20:29:06.964Z,5.72
2022-09-24T20:31:34.777Z,7.55
2022-09-24T20:34:02.905Z,7.90
2022-09-24T20:36:31.663Z,7.22
2022-09-24T20:38:59.972Z,9.15
2022-09-24T20:41:27.978Z,7.05
2022-09-24T20:43:56.560Z,9.10
2022-09-24T20:46:28.646Z,6.63
2022-09-24T20:49:00.007Z,8.15
2022-09-24T20:51:29.427Z,7.88
2022-09-24T20:53:59.174Z,8.63
2022-09-24T20:56:27.855Z,7.25
2022-09-24T20:58:55.659Z,8.80
2022-09-24T21:01:25.352Z,7.05
2022-09-24T21:03:53.744Z,9.23
2022-09-24T21:06:22.975Z,8.25
2022-09-24T21:08:51.538Z,7.30
2022-09-24T21:11:21.671Z,6.60
2022-09-24T21:13:51.451Z,7.05
2022-09-24T21:16:20.981Z,9.60
2022-09-24T21:18:52.240Z,7.03
2022-09-24T21:21:22.666Z,10.88
2022-09-24T21:26:20.524Z,10.18
2022-09-24T21:28:50.144Z,8.33
2022-09-24T21:31:21.365Z,9.60
2022-09-24T21:33:55.294Z,9.95
2022-09-24T21:36:24.883Z,11.82
2022-09-24T21:38:55.431Z,9.33
2022-09-24T21:43:58.409Z,9.05
2022-09-24T21:46:32.297Z,8.93
2022-09-24T21:49:02.693Z,9.75
2022-09-24T21:51:31.404Z,11.05
2022-09-24T21:54:01.776Z,10.57
2022-09-24T21:56:30.194Z,15.35
2022-09-24T21:58:59.299Z,12.52
2022-09-24T22:01:29.754Z,8.25
2022-09-24T22:06:29.954Z,17.33
2022-09-24T22:08:59.432Z,11.18
2022-09-24T22:11:27.854Z,11.52
2022-09-24T22:14:01.198Z,11.48
2022-09-24T22:16:29.370Z,12.07
2022-09-24T22:18:57.251Z,11.32
2022-09-24T22:21:25.426Z,10.90
2022-09-24T22:23:55.551Z,10.18
2022-09-24T22:26:23.358Z,11.18
2022-09-24T22:28:51.166Z,8.20
2022-09-24T22:31:19.398Z,10.65
2022-09-24T22:34:04.831Z,11.07
2022-09-24T22:36:35.309Z,8.70
2022-09-24T22:41:35.798Z,9.85
2022-09-24T22:44:03.927Z,7.78
2022-09-24T22:46:33.204Z,10.05
2022-09-24T22:49:01.472Z,8.60
2022-09-24T22:51:29.941Z,13.18
2022-09-24T22:53:58.843Z,11.50
2022-09-24T22:56:30.096Z,11.38
2022-09-24T22:58:59.876Z,12.73
2022-09-24T23:01:30.350Z,12.65
2022-09-24T23:03:58.832Z,12.50
2022-09-24T23:06:27.376Z,10.88
2022-09-24T23:08:56.394Z,11.15
2022-09-24T23:11:26.010Z,11.55
2022-09-24T23:13:57.236Z,14.97
2022-09-24T23:16:26.740Z,10.57
2022-09-24T23:18:56.274Z,8.67
2022-09-24T23:21:25.899Z,15.27
2022-09-24T23:23:55.147Z,10.27
2022-09-24T23:26:25.151Z,11.35
2022-09-24T23:28:56.068Z,10.52
2022-09-24T23:31:27.297Z,11.23
2022-09-24T23:33:57.417Z,13.02
2022-09-24T23:36:26.523Z,10.80
2022-09-24T23:38:54.831Z,12.90
2022-09-24T23:41:22.879Z,10.23
2022-09-24T23:43:50.918Z,16.30
2022-09-24T23:46:21.017Z,10.82
2022-09-24T23:48:48.904Z,13.60
2022-09-24T23:51:16.714Z,10.50
2022-09-24T23:53:44.551Z,11.63
2022-09-24T23:56:13.455Z,13.20
2022-09-24T23:58:42.309Z,9.48
